createdAt,value
2018-04-12T00:00:16.704Z,14.18
2018-04-12T00:00:57.277Z,14.18
2018-04-12T00:01:37.839Z,14.22
2018-04-12T00:02:18.404Z,14.2
2018-04-12T00:02:58.960Z,14.2
2018-04-12T00:03:39.581Z,14.1
2018-04-12T00:04:20.157Z,14.14
2018-04-12T00:05:00.726Z,14.15
2018-04-12T00:05:41.295Z,14.08
2018-04-12T00:06:21.865Z,14.08
2018-04-12T00:07:02.440Z,14.11
2018-04-12T00:07:43.004Z,14.15
2018-04-12T00:08:23.558Z,14.12
2018-04-12T00:09:04.119Z,14.15
2018-04-12T00:09:44.748Z,14.14
2018-04-12T00:10:25.309Z,14.08
2018-04-12T00:11:05.871Z,14.15
2018-04-12T00:11:46.436Z,14.1
2018-04-12T00:12:27.002Z,14.08
2018-04-12T00:13:07.579Z,14.11
2018-04-12T00:13:48.178Z,14.1
2018-04-12T00:14:28.763Z,14.12
2018-04-12T00:15:09.333Z,14.12
2018-04-12T00:15:49.886Z,14.08
2018-04-12T00:16:30.446Z,14.05
2018-04-12T00:17:11.004Z,14.08
2018-04-12T00:17:51.573Z,14.1
2018-04-12T00:18:32.115Z,14.11
2018-04-12T00:19:12.678Z,14.07
2018-04-12T00:19:53.236Z,14.1
2018-04-12T00:20:33.796Z,14.08
2018-04-12T00:21:14.365Z,14.08
2018-04-12T00:21:54.966Z,14.03
2018-04-12T00:22:35.523Z,14.08
2018-04-12T00:23:16.094Z,14.07
2018-04-12T00:23:56.695Z,14.04
2018-04-12T00:24:37.285Z,14.05
2018-04-12T00:25:17.850Z,14.03
2018-04-12T00:25:58.412Z,14.08
2018-04-12T00:26:38.972Z,14.05
2018-04-12T00:27:19.529Z,14.07
2018-04-12T00:28:00.105Z,14.04
2018-04-12T00:28:40.684Z,14.05
2018-04-12T00:29:21.280Z,14.1
2018-04-12T00:30:01.863Z,14
2018-04-12T00:30:42.424Z,13.99
2018-04-12T00:31:22.977Z,14.04
2018-04-12T00:32:03.542Z,13.97
2018-04-12T00:32:44.119Z,14
2018-04-12T00:33:24.695Z,14
2018-04-12T00:34:05.299Z,14.05
2018-04-12T00:34:45.893Z,13.9
2018-04-12T00:35:26.447Z,13.92
2018-04-12T00:36:07.015Z,13.97
2018-04-12T00:36:47.575Z,13.99
2018-04-12T00:37:28.139Z,13.93
2018-04-12T00:38:08.708Z,13.95
2018-04-12T00:38:49.285Z,14.08
2018-04-12T00:39:29.824Z,13.87
2018-04-12T00:40:10.387Z,13.87
2018-04-12T00:40:50.949Z,13.9
2018-04-12T00:41:31.522Z,13.93
2018-04-12T00:42:12.084Z,13.92
2018-04-12T00:42:52.668Z,13.85
2018-04-12T00:43:33.241Z,13.9
2018-04-12T00:44:13.821Z,13.9
2018-04-12T00:44:54.389Z,13.85
2018-04-12T00:45:34.958Z,13.9
2018-04-12T00:46:15.519Z,13.86
2018-04-12T00:46:56.109Z,13.89
2018-04-12T00:47:36.678Z,13.93
2018-04-12T00:48:17.250Z,13.9
2018-04-12T00:48:57.823Z,13.95
2018-04-12T00:49:38.386Z,13.92
2018-04-12T00:50:18.979Z,13.93
2018-04-12T00:50:59.539Z,13.9
2018-04-12T00:51:40.120Z,13.89
2018-04-12T00:52:20.711Z,13.87
2018-04-12T00:53:01.265Z,13.85
2018-04-12T00:53:41.841Z,13.79
2018-04-12T00:54:22.405Z,13.83
2018-04-12T00:55:02.975Z,13.78
2018-04-12T00:55:43.559Z,13.83
2018-04-12T00:56:24.120Z,13.81
2018-04-12T00:57:04.712Z,13.85
2018-04-12T00:57:45.338Z,13.81
2018-04-12T00:58:25.891Z,13.77
2018-04-12T00:59:06.445Z,13.72
2018-04-12T00:59:47.003Z,13.78
2018-04-12T01:00:27.586Z,13.77
2018-04-12T01:01:08.141Z,13.79
2018-04-12T01:01:48.693Z,13.79
2018-04-12T01:02:29.256Z,13.78
2018-04-12T01:03:09.813Z,13.78
2018-04-12T01:03:50.382Z,13.75
2018-04-12T01:04:30.939Z,13.79
2018-04-12T01:05:11.536Z,13.75
2018-04-12T01:05:52.096Z,13.75
2018-04-12T01:06:32.674Z,13.78
2018-04-12T01:07:13.242Z,13.75
2018-04-12T01:07:53.794Z,13.74
2018-04-12T01:08:34.353Z,13.71
2018-04-12T01:09:14.911Z,13.74
2018-04-12T01:09:55.499Z,13.7
2018-04-12T01:10:36.082Z,13.78
2018-04-12T01:11:16.663Z,13.7
2018-04-12T01:11:57.280Z,13.71
2018-04-12T01:12:37.870Z,13.7
2018-04-12T01:13:18.475Z,13.65
2018-04-12T01:13:59.060Z,13.68
2018-04-12T01:14:39.633Z,13.68
2018-04-12T01:15:20.197Z,13.68
2018-04-12T01:16:00.775Z,13.65
2018-04-12T01:16:41.337Z,13.68
2018-04-12T01:17:21.928Z,13.57
2018-04-12T01:18:02.519Z,13.6
2018-04-12T01:18:43.129Z,13.57
2018-04-12T01:19:23.685Z,13.65
2018-04-12T01:20:04.262Z,13.57
2018-04-12T01:20:44.841Z,13.63
2018-04-12T01:21:25.406Z,13.67
2018-04-12T01:22:05.986Z,13.67
2018-04-12T01:22:46.538Z,13.63
2018-04-12T01:23:27.108Z,13.6
2018-04-12T01:24:07.663Z,13.62
2018-04-12T01:24:48.230Z,13.6
2018-04-12T01:25:28.811Z,13.62
2018-04-12T01:26:09.409Z,13.59
2018-04-12T01:26:49.960Z,13.62
2018-04-12T01:27:30.524Z,13.6
2018-04-12T01:28:11.078Z,13.57
2018-04-12T01:28:51.646Z,13.56
2018-04-12T01:29:32.234Z,13.54
2018-04-12T01:30:12.792Z,13.52
2018-04-12T01:30:53.358Z,13.52
2018-04-12T01:31:33.920Z,13.52
2018-04-12T01:32:14.476Z,13.52
2018-04-12T01:32:55.057Z,13.62
2018-04-12T01:33:35.644Z,13.54
2018-04-12T01:34:16.247Z,13.52
2018-04-12T01:34:56.794Z,13.57
2018-04-12T01:35:37.362Z,13.54
2018-04-12T01:36:17.922Z,13.57
2018-04-12T01:36:58.480Z,13.54
2018-04-12T01:37:39.035Z,13.59
2018-04-12T01:38:19.606Z,13.54
2018-04-12T01:39:00.164Z,13.59
2018-04-12T01:39:40.752Z,13.54
2018-04-12T01:40:21.323Z,13.52
2018-04-12T01:41:01.871Z,13.57
2018-04-12T01:41:42.446Z,13.59
2018-04-12T01:42:23.012Z,13.52
2018-04-12T01:43:03.562Z,13.54
2018-04-12T01:43:44.132Z,13.47
2018-04-12T01:44:24.711Z,13.47
2018-04-12T01:45:05.252Z,13.49
2018-04-12T01:45:45.822Z,13.5
2018-04-12T01:46:26.413Z,13.5
2018-04-12T01:47:06.978Z,13.42
2018-04-12T01:47:47.545Z,13.46
2018-04-12T01:48:28.144Z,13.41
2018-04-12T01:49:08.726Z,13.41
2018-04-12T01:49:49.300Z,13.46
2018-04-12T01:50:29.879Z,13.46
2018-04-12T01:51:10.476Z,13.46
2018-04-12T01:51:51.004Z,13.47
2018-04-12T01:52:31.582Z,13.41
2018-04-12T01:53:12.185Z,13.5
2018-04-12T01:53:52.723Z,13.47
2018-04-12T01:54:33.284Z,13.37
2018-04-12T01:55:13.835Z,13.47
2018-04-12T01:55:54.402Z,13.38
2018-04-12T01:56:34.991Z,13.44
2018-04-12T01:57:15.584Z,13.33
2018-04-12T01:57:56.147Z,13.38
2018-04-12T01:58:36.704Z,13.53
2018-04-12T01:59:17.295Z,13.44
2018-04-12T01:59:57.878Z,13.39
2018-04-12T02:00:38.438Z,13.47
2018-04-12T02:01:19.020Z,13.35
2018-04-12T02:01:59.605Z,13.49
2018-04-12T02:02:40.190Z,13.39
2018-04-12T02:03:20.754Z,13.38
2018-04-12T02:04:01.304Z,13.31
2018-04-12T02:04:41.880Z,13.44
2018-04-12T02:05:22.440Z,13.44
2018-04-12T02:06:03.020Z,13.35
2018-04-12T02:06:43.582Z,13.41
2018-04-12T02:07:24.143Z,13.38
2018-04-12T02:08:04.702Z,13.33
2018-04-12T02:08:45.271Z,13.38
2018-04-12T02:09:25.834Z,13.39
2018-04-12T02:10:06.388Z,13.46
2018-04-12T02:10:46.953Z,13.35
2018-04-12T02:11:27.513Z,13.37
2018-04-12T02:12:08.073Z,13.22
2018-04-12T02:12:48.663Z,13.2
2018-04-12T02:13:29.208Z,13.3
2018-04-12T02:14:09.823Z,13.2
2018-04-12T02:14:50.393Z,13.25
2018-04-12T02:15:30.961Z,13.19
2018-04-12T02:16:11.528Z,13.18
2018-04-12T02:16:52.098Z,13.25
2018-04-12T02:17:32.659Z,13.2
2018-04-12T02:18:13.263Z,13.23
2018-04-12T02:18:53.867Z,13.15
2018-04-12T02:19:34.416Z,13.18
2018-04-12T02:20:14.996Z,13.13
2018-04-12T02:20:55.550Z,13.15
2018-04-12T02:21:36.129Z,13.2
2018-04-12T02:22:16.689Z,13.16
2018-04-12T02:22:57.250Z,13.15
2018-04-12T02:23:37.815Z,13.15
2018-04-12T02:24:18.388Z,13.12
2018-04-12T02:24:58.957Z,13.05
2018-04-12T02:25:39.516Z,13.11
2018-04-12T02:26:20.092Z,13.15
2018-04-12T02:27:00.655Z,13.12
2018-04-12T02:27:41.209Z,13.08
2018-04-12T02:28:21.777Z,13.15
2018-04-12T02:29:02.330Z,13.05
2018-04-12T02:29:42.901Z,13.05
2018-04-12T02:30:23.467Z,13.08
2018-04-12T02:31:04.036Z,13.09
2018-04-12T02:31:44.611Z,13.12
2018-04-12T02:32:25.175Z,13.05
2018-04-12T02:33:05.735Z,13.04
2018-04-12T02:33:46.296Z,13.03
2018-04-12T02:34:26.856Z,13.03
2018-04-12T02:35:07.464Z,13.04
2018-04-12T02:35:47.981Z,13.01
2018-04-12T02:36:28.540Z,13.05
2018-04-12T02:37:09.111Z,13
2018-04-12T02:37:49.672Z,13.09
2018-04-12T02:38:30.273Z,13.04
2018-04-12T02:39:10.860Z,13.01
2018-04-12T02:39:51.480Z,13.05
2018-04-12T02:40:32.030Z,13.01
2018-04-12T02:41:12.598Z,13.04
2018-04-12T02:41:53.158Z,13.04
2018-04-12T02:42:33.748Z,13.04
2018-04-12T02:43:14.299Z,13
2018-04-12T02:43:54.872Z,12.95
2018-04-12T02:44:35.451Z,12.98
2018-04-12T02:45:16.006Z,12.95
2018-04-12T02:45:56.589Z,12.98
2018-04-12T02:46:37.160Z,13.01
2018-04-12T02:47:17.731Z,12.97
2018-04-12T02:47:58.295Z,12.98
2018-04-12T02:48:38.869Z,12.97
2018-04-12T02:49:19.451Z,12.94
2018-04-12T02:50:00.005Z,13.01
2018-04-12T02:50:40.617Z,12.93
2018-04-12T02:51:21.150Z,12.97
2018-04-12T02:52:01.704Z,13
2018-04-12T02:52:42.268Z,12.97
2018-04-12T02:53:22.834Z,12.94
2018-04-12T02:54:03.408Z,12.95
2018-04-12T02:54:43.995Z,12.9
2018-04-12T02:55:24.557Z,12.91
2018-04-12T02:56:05.122Z,12.95
2018-04-12T02:56:45.692Z,13
2018-04-12T02:57:26.255Z,12.9
2018-04-12T02:58:06.828Z,12.91
2018-04-12T02:58:47.412Z,12.83
2018-04-12T02:59:28.009Z,12.95
2018-04-12T03:00:08.610Z,12.9
2018-04-12T03:00:49.160Z,12.94
2018-04-12T03:01:29.749Z,12.93
2018-04-12T03:02:10.316Z,12.95
2018-04-12T03:02:50.901Z,12.9
2018-04-12T03:03:31.455Z,12.87
2018-04-12T03:04:12.009Z,12.93
2018-04-12T03:04:52.573Z,12.94
2018-04-12T03:05:33.133Z,12.87
2018-04-12T03:06:13.713Z,12.91
2018-04-12T03:06:54.286Z,12.93
2018-04-12T03:07:34.854Z,12.9
2018-04-12T03:08:15.420Z,12.82
2018-04-12T03:08:55.976Z,12.94
2018-04-12T03:09:36.564Z,12.97
2018-04-12T03:10:17.140Z,12.94
2018-04-12T03:10:57.700Z,12.9
2018-04-12T03:11:38.263Z,12.97
2018-04-12T03:12:18.820Z,13.01
2018-04-12T03:12:59.391Z,12.86
2018-04-12T03:13:39.959Z,12.95
2018-04-12T03:14:20.542Z,12.98
2018-04-12T03:15:01.111Z,12.97
2018-04-12T03:15:41.683Z,12.91
2018-04-12T03:16:22.246Z,12.91
2018-04-12T03:17:02.824Z,12.82
2018-04-12T03:17:43.383Z,12.91
2018-04-12T03:18:23.939Z,12.8
2018-04-12T03:19:04.508Z,12.79
2018-04-12T03:19:45.082Z,12.85
2018-04-12T03:20:25.653Z,12.83
2018-04-12T03:21:06.204Z,12.82
2018-04-12T03:21:46.767Z,12.79
2018-04-12T03:22:27.360Z,12.86
2018-04-12T03:23:07.933Z,12.78
2018-04-12T03:23:48.495Z,12.83
2018-04-12T03:24:29.115Z,12.9
2018-04-12T03:25:09.609Z,12.79
2018-04-12T03:25:50.199Z,12.86
2018-04-12T03:26:30.770Z,12.91
2018-04-12T03:27:11.367Z,12.82
2018-04-12T03:27:51.898Z,12.82
2018-04-12T03:28:32.459Z,12.79
2018-04-12T03:29:13.032Z,12.79
2018-04-12T03:29:53.611Z,12.86
2018-04-12T03:30:34.173Z,12.82
2018-04-12T03:31:14.735Z,12.79
2018-04-12T03:31:55.288Z,12.8
2018-04-12T03:32:35.845Z,12.8
2018-04-12T03:33:16.432Z,12.82
2018-04-12T03:33:56.992Z,12.82
2018-04-12T03:34:37.579Z,12.83
2018-04-12T03:35:18.163Z,12.72
2018-04-12T03:35:58.721Z,12.75
2018-04-12T03:36:39.278Z,12.78
2018-04-12T03:37:19.839Z,12.73
2018-04-12T03:38:00.390Z,12.75
2018-04-12T03:38:41.009Z,12.78
2018-04-12T03:39:21.597Z,12.73
2018-04-12T03:40:02.138Z,12.76
2018-04-12T03:40:42.711Z,12.75
2018-04-12T03:41:23.296Z,12.75
2018-04-12T03:42:03.872Z,12.75
2018-04-12T03:42:44.447Z,12.76
2018-04-12T03:43:25.021Z,12.73
2018-04-12T03:44:05.621Z,12.7
2018-04-12T03:44:46.181Z,12.75
2018-04-12T03:45:26.761Z,12.73
2018-04-12T03:46:07.324Z,12.75
2018-04-12T03:46:47.897Z,12.8
2018-04-12T03:47:28.483Z,12.82
2018-04-12T03:48:09.060Z,12.73
2018-04-12T03:48:49.650Z,12.75
2018-04-12T03:49:30.207Z,12.76
2018-04-12T03:50:10.765Z,12.72
2018-04-12T03:50:51.330Z,12.73
2018-04-12T03:51:31.893Z,12.86
2018-04-12T03:52:12.457Z,12.73
2018-04-12T03:52:53.011Z,12.79
2018-04-12T03:53:33.572Z,12.67
2018-04-12T03:54:14.124Z,12.75
2018-04-12T03:54:54.698Z,12.73
2018-04-12T03:55:35.268Z,12.75
2018-04-12T03:56:15.875Z,12.79
2018-04-12T03:56:56.445Z,12.79
2018-04-12T03:57:37.055Z,12.79
2018-04-12T03:58:17.629Z,12.73
2018-04-12T03:58:58.232Z,12.68
2018-04-12T03:59:38.802Z,12.78
2018-04-12T04:00:19.366Z,12.75
2018-04-12T04:00:59.962Z,12.75
2018-04-12T04:01:40.610Z,12.73
2018-04-12T04:02:21.178Z,12.73
2018-04-12T04:03:01.776Z,12.73
2018-04-12T04:03:42.356Z,12.72
2018-04-12T04:04:22.953Z,12.75
2018-04-12T04:05:03.517Z,12.73
2018-04-12T04:05:44.093Z,12.72
2018-04-12T04:06:24.636Z,12.64
2018-04-12T04:07:05.215Z,12.68
2018-04-12T04:07:45.838Z,12.73
2018-04-12T04:08:26.490Z,12.73
2018-04-12T04:09:06.961Z,12.75
2018-04-12T04:09:47.519Z,12.65
2018-04-12T04:10:28.076Z,12.76
2018-04-12T04:11:08.629Z,12.75
2018-04-12T04:11:49.209Z,12.7
2018-04-12T04:12:29.818Z,12.76
2018-04-12T04:13:10.382Z,12.72
2018-04-12T04:13:50.963Z,12.78
2018-04-12T04:14:31.596Z,12.73
2018-04-12T04:15:12.116Z,12.76
2018-04-12T04:15:52.814Z,12.72
2018-04-12T04:16:33.579Z,12.61
2018-04-12T04:17:14.150Z,12.64
2018-04-12T04:17:54.719Z,12.57
2018-04-12T04:18:35.277Z,12.65
2018-04-12T04:19:15.829Z,12.62
2018-04-12T04:19:56.383Z,12.65
2018-04-12T04:20:36.951Z,12.62
2018-04-12T04:21:17.507Z,12.57
2018-04-12T04:21:58.170Z,12.68
2018-04-12T04:22:40.722Z,12.87
2018-04-12T04:23:21.298Z,12.98
2018-04-12T04:24:01.898Z,13.18
2018-04-12T04:24:42.491Z,13.31
2018-04-12T04:25:23.060Z,13.44
2018-04-12T04:26:03.654Z,13.56
2018-04-12T04:26:44.213Z,13.46
2018-04-12T04:27:24.767Z,13.44
2018-04-12T04:28:05.328Z,13.5
2018-04-12T04:28:45.928Z,13.44
2018-04-12T04:29:26.490Z,13.35
2018-04-12T04:30:07.061Z,13.33
2018-04-12T04:30:47.614Z,13.18
2018-04-12T04:31:28.176Z,13.18
2018-04-12T04:32:08.735Z,13.13
2018-04-12T04:32:49.291Z,13.05
2018-04-12T04:33:29.867Z,13.04
2018-04-12T04:34:10.432Z,12.94
2018-04-12T04:34:51.008Z,12.91
2018-04-12T04:35:31.580Z,12.9
2018-04-12T04:36:12.144Z,12.83
2018-04-12T04:36:52.732Z,12.8
2018-04-12T04:37:33.306Z,12.83
2018-04-12T04:38:13.887Z,12.76
2018-04-12T04:38:54.500Z,12.72
2018-04-12T04:39:35.084Z,12.73
2018-04-12T04:40:15.673Z,12.75
2018-04-12T04:40:56.251Z,12.75
2018-04-12T04:41:36.779Z,12.73
2018-04-12T04:42:17.334Z,12.76
2018-04-12T04:42:57.904Z,12.7
2018-04-12T04:43:38.462Z,12.73
2018-04-12T04:44:19.059Z,12.54
2018-04-12T04:44:59.624Z,12.62
2018-04-12T04:45:40.181Z,12.62
2018-04-12T04:46:20.755Z,12.61
2018-04-12T04:47:01.377Z,12.58
2018-04-12T04:47:42.045Z,12.6
2018-04-12T04:48:22.601Z,12.65
2018-04-12T04:49:03.198Z,12.64
2018-04-12T04:49:43.768Z,12.6
2018-04-12T04:50:24.376Z,12.62
2018-04-12T04:51:04.956Z,12.57
2018-04-12T04:51:45.522Z,12.5
2018-04-12T04:52:26.073Z,12.6
2018-04-12T04:53:06.638Z,12.57
2018-04-12T04:53:47.296Z,12.53
2018-04-12T04:54:28.085Z,12.55
2018-04-12T04:55:08.619Z,12.54
2018-04-12T04:55:49.260Z,12.53
2018-04-12T04:56:30.421Z,12.55
2018-04-12T04:57:11.188Z,12.53
2018-04-12T04:57:51.766Z,12.45
2018-04-12T04:58:32.325Z,12.53
2018-04-12T04:59:12.891Z,12.55
2018-04-12T04:59:53.492Z,12.57
2018-04-12T05:00:34.040Z,12.5
2018-04-12T05:01:14.604Z,12.54
2018-04-12T05:01:55.160Z,12.58
2018-04-12T05:02:35.735Z,12.58
2018-04-12T05:03:16.304Z,12.6
2018-04-12T05:03:56.879Z,12.55
2018-04-12T05:04:37.441Z,12.54
2018-04-12T05:05:18.029Z,12.49
2018-04-12T05:05:58.603Z,12.55
2018-04-12T05:06:39.158Z,12.54
2018-04-12T05:07:19.772Z,12.57
2018-04-12T05:08:00.315Z,12.55
2018-04-12T05:08:40.864Z,12.54
2018-04-12T05:09:21.434Z,12.55
2018-04-12T05:10:02.003Z,12.49
2018-04-12T05:10:42.723Z,12.47
2018-04-12T05:11:23.292Z,12.47
2018-04-12T05:12:03.857Z,12.47
2018-04-12T05:12:44.426Z,12.47
2018-04-12T05:13:24.990Z,12.47
2018-04-12T05:14:05.575Z,12.49
2018-04-12T05:14:46.171Z,12.54
2018-04-12T05:15:26.753Z,12.47
2018-04-12T05:16:07.309Z,12.46
2018-04-12T05:16:47.885Z,12.53
2018-04-12T05:17:28.510Z,12.49
2018-04-12T05:18:09.085Z,12.46
2018-04-12T05:18:49.749Z,12.49
2018-04-12T05:19:30.315Z,12.47
2018-04-12T05:20:10.882Z,12.47
2018-04-12T05:20:51.508Z,12.46
2018-04-12T05:21:32.084Z,12.5
2018-04-12T05:22:12.664Z,12.49
2018-04-12T05:22:53.227Z,12.49
2018-04-12T05:23:33.788Z,12.5
2018-04-12T05:24:14.348Z,12.49
2018-04-12T05:24:54.917Z,12.5
2018-04-12T05:25:35.479Z,12.49
2018-04-12T05:26:16.049Z,12.47
2018-04-12T05:26:56.600Z,12.53
2018-04-12T05:27:37.183Z,12.53
2018-04-12T05:28:17.770Z,12.5
2018-04-12T05:28:58.325Z,12.47
2018-04-12T05:29:39.020Z,12.5
2018-04-12T05:30:19.590Z,12.49
2018-04-12T05:31:00.189Z,12.5
2018-04-12T05:31:40.822Z,12.43
2018-04-12T05:32:21.402Z,12.5
2018-04-12T05:33:01.980Z,12.45
2018-04-12T05:33:42.527Z,12.54
2018-04-12T05:34:23.090Z,12.5
2018-04-12T05:35:03.667Z,12.57
2018-04-12T05:35:44.217Z,12.64
2018-04-12T05:36:24.828Z,12.73
2018-04-12T05:37:05.468Z,12.85
2018-04-12T05:37:46.037Z,12.82
2018-04-12T05:38:26.620Z,12.97
2018-04-12T05:39:07.194Z,13.01
2018-04-12T05:39:47.743Z,13.15
2018-04-12T05:40:28.311Z,13.27
2018-04-12T05:41:08.868Z,13.39
2018-04-12T05:41:49.451Z,13.37
2018-04-12T05:42:30.022Z,13.38
2018-04-12T05:43:10.595Z,13.41
2018-04-12T05:43:51.186Z,13.38
2018-04-12T05:44:31.758Z,13.5
2018-04-12T05:45:12.337Z,13.46
2018-04-12T05:45:52.956Z,13.5
2018-04-12T05:46:33.611Z,13.49
2018-04-12T05:47:14.160Z,13.44
2018-04-12T05:47:54.711Z,13.42
2018-04-12T05:48:35.278Z,13.39
2018-04-12T05:49:15.844Z,13.44
2018-04-12T05:49:56.401Z,13.41
2018-04-12T05:50:36.968Z,13.35
2018-04-12T05:51:17.551Z,13.22
2018-04-12T05:52:00.018Z,13.18
2018-04-12T05:52:40.577Z,13.27
2018-04-12T05:53:21.179Z,13.2
2018-04-12T05:54:01.804Z,13.28
2018-04-12T05:54:42.404Z,13.13
2018-04-12T05:55:22.958Z,13.11
2018-04-12T05:56:03.520Z,13.12
2018-04-12T05:56:44.083Z,13.05
2018-04-12T05:57:24.656Z,13.11
2018-04-12T05:58:05.255Z,13.08
2018-04-12T05:58:45.828Z,13.04
2018-04-12T05:59:26.393Z,13.04
2018-04-12T06:00:06.977Z,13.08
2018-04-12T06:00:47.585Z,13.01
2018-04-12T06:01:28.167Z,13.03
2018-04-12T06:02:08.723Z,13
2018-04-12T06:02:49.292Z,13
2018-04-12T06:03:29.921Z,12.98
2018-04-12T06:04:10.489Z,12.98
2018-04-12T06:04:51.098Z,13.04
2018-04-12T06:05:31.693Z,13.01
2018-04-12T06:06:12.266Z,13.04
2018-04-12T06:06:52.823Z,13
2018-04-12T06:07:33.403Z,13
2018-04-12T06:08:13.967Z,13.01
2018-04-12T06:08:54.542Z,13.03
2018-04-12T06:09:35.142Z,13.05
2018-04-12T06:10:15.702Z,13.04
2018-04-12T06:10:56.321Z,13.03
2018-04-12T06:11:36.879Z,13.05
2018-04-12T06:12:17.588Z,13.05
2018-04-12T06:12:58.166Z,13.01
2018-04-12T06:13:38.741Z,13.05
2018-04-12T06:14:19.342Z,13.05
2018-04-12T06:14:59.887Z,13.05
2018-04-12T06:15:40.449Z,13.04
2018-04-12T06:16:21.053Z,13.08
2018-04-12T06:17:01.599Z,13.15
2018-04-12T06:17:42.194Z,13.12
2018-04-12T06:18:22.775Z,13.13
2018-04-12T06:19:03.339Z,13.18
2018-04-12T06:19:43.946Z,13.12
2018-04-12T06:20:24.558Z,13.11
2018-04-12T06:21:05.205Z,13.19
2018-04-12T06:21:45.817Z,13.27
2018-04-12T06:22:26.388Z,13.23
2018-04-12T06:23:06.956Z,13.27
2018-04-12T06:23:47.576Z,13.23
2018-04-12T06:24:28.131Z,13.18
2018-04-12T06:25:08.722Z,13.22
2018-04-12T06:25:49.318Z,13.31
2018-04-12T06:26:29.885Z,13.31
2018-04-12T06:27:10.457Z,13.37
2018-04-12T06:27:51.049Z,13.37
2018-04-12T06:28:31.653Z,13.35
2018-04-12T06:29:12.221Z,13.37
2018-04-12T06:29:52.865Z,13.35
2018-04-12T06:30:33.477Z,13.44
2018-04-12T06:31:14.111Z,13.39
2018-04-12T06:31:54.697Z,13.42
2018-04-12T06:32:35.465Z,13.38
2018-04-12T06:33:16.425Z,13.46
2018-04-12T06:33:57.041Z,13.49
2018-04-12T06:34:37.590Z,13.49
2018-04-12T06:35:18.152Z,13.54
2018-04-12T06:35:58.713Z,13.59
2018-04-12T06:36:39.292Z,13.72
2018-04-12T06:37:19.878Z,13.77
2018-04-12T06:38:00.488Z,13.75
2018-04-12T06:38:41.074Z,13.78
2018-04-12T06:39:21.650Z,13.81
2018-04-12T06:40:02.221Z,13.95
2018-04-12T06:40:42.781Z,13.92
2018-04-12T06:41:23.354Z,13.9
2018-04-12T06:42:03.917Z,13.93
2018-04-12T06:42:44.473Z,14.04
2018-04-12T06:43:25.053Z,14
2018-04-12T06:44:05.631Z,14.07
2018-04-12T06:44:46.238Z,14.12
2018-04-12T06:45:26.814Z,14.2
2018-04-12T06:46:07.468Z,14.32
2018-04-12T06:46:48.083Z,14.25
2018-04-12T06:47:28.604Z,14.35
2018-04-12T06:48:09.163Z,14.37
2018-04-12T06:48:49.760Z,14.45
2018-04-12T06:49:30.330Z,14.58
2018-04-12T06:50:10.911Z,14.47
2018-04-12T06:50:51.500Z,14.5
2018-04-12T06:51:32.104Z,14.53
2018-04-12T06:52:12.708Z,14.51
2018-04-12T06:52:53.281Z,14.53
2018-04-12T06:53:33.844Z,14.53
2018-04-12T06:54:14.412Z,14.5
2018-04-12T06:54:55.013Z,14.5
2018-04-12T06:55:35.584Z,14.48
2018-04-12T06:56:16.193Z,14.53
2018-04-12T06:56:56.768Z,14.5
2018-04-12T06:57:37.338Z,14.58
2018-04-12T06:58:17.903Z,14.51
2018-04-12T06:58:58.485Z,14.53
2018-04-12T06:59:39.047Z,14.5
2018-04-12T07:00:19.631Z,14.47
2018-04-12T07:01:00.231Z,14.36
2018-04-12T07:01:40.958Z,14.37
2018-04-12T07:02:22.077Z,14.41
2018-04-12T07:03:02.667Z,14.3
2018-04-12T07:03:43.458Z,14.35
2018-04-12T07:04:24.030Z,14.36
2018-04-12T07:05:04.620Z,14.32
2018-04-12T07:05:45.208Z,14.29
2018-04-12T07:06:26.415Z,14.32
2018-04-12T07:07:07.027Z,14.32
2018-04-12T07:07:47.660Z,14.36
2018-04-12T07:08:28.250Z,14.33
2018-04-12T07:09:08.907Z,14.35
2018-04-12T07:09:49.652Z,14.37
2018-04-12T07:10:30.173Z,14.47
2018-04-12T07:11:10.744Z,14.53
2018-04-12T07:11:51.327Z,14.5
2018-04-12T07:12:31.910Z,14.54
2018-04-12T07:13:12.502Z,14.54
2018-04-12T07:13:53.071Z,14.59
2018-04-12T07:14:33.641Z,14.62
2018-04-12T07:15:14.231Z,14.59
2018-04-12T07:15:54.791Z,14.58
2018-04-12T07:16:35.356Z,14.58
2018-04-12T07:17:16.042Z,14.55
2018-04-12T07:17:56.742Z,14.65
2018-04-12T07:18:37.554Z,14.5
2018-04-12T07:19:18.523Z,14.54
2018-04-12T07:19:59.411Z,14.47
2018-04-12T07:20:39.962Z,14.59
2018-04-12T07:21:20.532Z,14.53
2018-04-12T07:22:01.468Z,14.59
2018-04-12T07:22:42.096Z,14.62
2018-04-12T07:23:23.086Z,14.59
2018-04-12T07:24:03.830Z,14.6
2018-04-12T07:24:44.511Z,14.48
2018-04-12T07:25:25.274Z,14.48
2018-04-12T07:26:05.858Z,14.45
2018-04-12T07:26:46.475Z,14.53
2018-04-12T07:27:28.089Z,14.62
2018-04-12T07:28:08.735Z,14.59
2018-04-12T07:28:49.324Z,14.54
2018-04-12T07:29:29.927Z,14.59
2018-04-12T07:30:10.524Z,14.63
2018-04-12T07:30:51.086Z,14.5
2018-04-12T07:31:31.659Z,14.58
2018-04-12T07:32:12.585Z,14.54
2018-04-12T07:32:53.172Z,14.55
2018-04-12T07:33:33.758Z,14.53
2018-04-12T07:34:14.317Z,14.62
2018-04-12T07:34:54.889Z,14.55
2018-04-12T07:35:35.580Z,14.62
2018-04-12T07:36:16.146Z,14.58
2018-04-12T07:36:56.748Z,14.69
2018-04-12T07:37:37.338Z,14.68
2018-04-12T07:38:19.111Z,14.65
2018-04-12T07:38:59.566Z,14.7
2018-04-12T07:39:40.152Z,14.81
2018-04-12T07:40:20.735Z,14.78
2018-04-12T07:41:01.363Z,14.77
2018-04-12T07:41:42.249Z,14.79
2018-04-12T07:42:22.879Z,14.77
2018-04-12T07:43:03.455Z,14.79
2018-04-12T07:43:44.068Z,14.81
2018-04-12T07:44:24.642Z,14.84
2018-04-12T07:45:05.201Z,14.89
2018-04-12T07:45:45.853Z,14.94
2018-04-12T07:46:26.746Z,14.89
2018-04-12T07:47:07.690Z,14.96
2018-04-12T07:47:48.401Z,14.97
2018-04-12T07:48:28.990Z,15
2018-04-12T07:49:09.569Z,14.94
2018-04-12T07:49:50.539Z,15.04
2018-04-12T07:50:31.161Z,15.1
2018-04-12T07:51:11.792Z,15.04
2018-04-12T07:51:52.391Z,15.22
2018-04-12T07:52:33.017Z,15.25
2018-04-12T07:53:13.581Z,15.25
2018-04-12T07:53:54.145Z,15.36
2018-04-12T07:54:34.743Z,15.37
2018-04-12T07:55:15.338Z,15.47
2018-04-12T07:55:55.935Z,15.57
2018-04-12T07:56:36.541Z,15.68
2018-04-12T07:57:17.148Z,15.75
2018-04-12T07:57:57.716Z,15.9
2018-04-12T07:58:38.310Z,15.83
2018-04-12T07:59:18.897Z,15.84
2018-04-12T07:59:59.513Z,15.84
2018-04-12T08:00:40.096Z,15.84
2018-04-12T08:01:20.677Z,15.82
2018-04-12T08:02:01.266Z,15.9
2018-04-12T08:02:41.787Z,16.02
2018-04-12T08:03:22.389Z,15.98
2018-04-12T08:04:02.997Z,15.98
2018-04-12T08:04:43.550Z,16.1
2018-04-12T08:05:24.250Z,16.09
2018-04-12T08:06:04.844Z,16.21
2018-04-12T08:06:45.451Z,16.23
2018-04-12T08:07:26.024Z,16.32
2018-04-12T08:08:06.607Z,16.24
2018-04-12T08:08:47.210Z,16.35
2018-04-12T08:09:27.858Z,16.41
2018-04-12T08:10:08.455Z,16.5
2018-04-12T08:10:49.024Z,16.56
2018-04-12T08:11:29.623Z,16.47
2018-04-12T08:12:10.156Z,16.47
2018-04-12T08:12:50.787Z,16.49
2018-04-12T08:13:31.419Z,16.42
2018-04-12T08:14:11.981Z,16.33
2018-04-12T08:14:52.568Z,16.32
2018-04-12T08:15:33.137Z,16.26
2018-04-12T08:16:13.772Z,16.32
2018-04-12T08:16:54.300Z,16.24
2018-04-12T08:17:34.873Z,16.2
2018-04-12T08:18:15.444Z,16.17
2018-04-12T08:18:56.040Z,16.1
2018-04-12T08:19:36.667Z,16.12
2018-04-12T08:20:17.232Z,16.04
2018-04-12T08:20:57.793Z,15.98
2018-04-12T08:21:38.395Z,15.98
2018-04-12T08:22:18.993Z,15.98
2018-04-12T08:22:59.566Z,15.94
2018-04-12T08:23:40.170Z,16.01
2018-04-12T08:24:20.734Z,15.98
2018-04-12T08:25:01.422Z,15.97
2018-04-12T08:25:42.001Z,15.95
2018-04-12T08:26:22.601Z,15.97
2018-04-12T08:27:03.163Z,15.94
2018-04-12T08:27:43.721Z,15.98
2018-04-12T08:28:24.303Z,16
2018-04-12T08:29:04.878Z,16.04
2018-04-12T08:29:45.438Z,15.97
2018-04-12T08:30:26.005Z,16.05
2018-04-12T08:31:06.592Z,16.15
2018-04-12T08:31:47.159Z,16.15
2018-04-12T08:32:27.758Z,16.16
2018-04-12T08:33:08.354Z,16.16
2018-04-12T08:33:48.914Z,16.23
2018-04-12T08:34:29.540Z,16.29
2018-04-12T08:35:10.108Z,16.31
2018-04-12T08:35:50.681Z,16.32
2018-04-12T08:36:31.245Z,16.41
2018-04-12T08:37:11.828Z,16.5
2018-04-12T08:37:52.411Z,16.54
2018-04-12T08:38:32.982Z,16.51
2018-04-12T08:39:13.574Z,16.6
2018-04-12T08:39:54.122Z,16.75
2018-04-12T08:40:34.685Z,16.72
2018-04-12T08:41:15.273Z,16.72
2018-04-12T08:41:55.843Z,16.74
2018-04-12T08:42:36.487Z,16.78
2018-04-12T08:43:17.103Z,16.84
2018-04-12T08:43:57.708Z,16.97
2018-04-12T08:44:38.549Z,17.01
2018-04-12T08:45:19.116Z,17.01